createdAt,value
2022-09-16T00:00:38.432Z,2.28
2022-09-16T00:03:05.751Z,1.50
2022-09-16T00:05:33.003Z,1.90
2022-09-16T00:08:00.256Z,1.70
2022-09-16T00:10:27.506Z,1.80
2022-09-16T00:12:54.733Z,2.00
2022-09-16T00:15:21.952Z,1.85
2022-09-16T00:17:49.421Z,1.88
2022-09-16T00:20:16.672Z,1.70
2022-09-16T00:22:43.894Z,1.77
2022-09-16T00:25:11.107Z,1.80
2022-09-16T00:27:38.335Z,2.17
2022-09-16T00:30:05.740Z,2.20
2022-09-16T00:32:32.970Z,1.83
2022-09-16T00:35:00.301Z,1.73
2022-09-16T00:37:27.583Z,1.88
2022-09-16T00:39:54.840Z,2.08
2022-09-16T00:42:22.118Z,2.03
2022-09-16T00:44:52.126Z,1.70
2022-09-16T00:47:22.912Z,2.20
2022-09-16T00:49:50.469Z,2.25
2022-09-16T00:52:18.210Z,1.92
2022-09-16T00:54:45.832Z,2.10
2022-09-16T00:57:14.413Z,2.03
2022-09-16T00:59:43.981Z,2.08
2022-09-16T01:02:16.463Z,2.38
2022-09-16T01:04:53.138Z,1.92
2022-09-16T01:07:40.719Z,1.77
2022-09-16T01:10:08.190Z,2.03
2022-09-16T01:12:35.782Z,1.83
2022-09-16T01:15:03.406Z,1.77
2022-09-16T01:17:36.623Z,1.92
2022-09-16T01:20:07.003Z,1.60
2022-09-16T01:22:42.626Z,1.70
2022-09-16T01:25:21.830Z,1.58
2022-09-16T01:28:11.786Z,2.00
2022-09-16T01:31:05.135Z,1.92
2022-09-16T01:33:32.403Z,2.00
2022-09-16T01:36:22.269Z,2.08
2022-09-16T01:39:08.314Z,2.03
2022-09-16T01:41:58.471Z,2.42
2022-09-16T01:44:32.446Z,2.40
2022-09-16T01:47:23.317Z,2.08
2022-09-16T01:50:15.242Z,2.70
2022-09-16T01:53:02.770Z,2.75
2022-09-16T01:55:34.883Z,2.67
2022-09-16T01:58:37.508Z,2.78
2022-09-16T02:01:08.032Z,2.70
2022-09-16T02:03:36.614Z,2.75
2022-09-16T02:06:09.271Z,2.67
2022-09-16T02:08:47.747Z,2.35
2022-09-16T02:11:16.813Z,2.17
2022-09-16T02:13:46.727Z,2.20
2022-09-16T02:16:37.259Z,2.00
2022-09-16T02:19:10.730Z,1.90
2022-09-16T02:21:43.503Z,2.40
2022-09-16T02:24:16.774Z,1.92
2022-09-16T02:29:17.259Z,2.35
2022-09-16T02:31:45.454Z,2.65
2022-09-16T02:34:16.677Z,2.40
2022-09-16T02:39:14.709Z,1.88
2022-09-16T02:41:42.152Z,1.77
2022-09-16T02:44:10.446Z,1.80
2022-09-16T02:46:43.602Z,1.92
2022-09-16T02:49:14.735Z,1.80
2022-09-16T02:54:28.504Z,1.88
2022-09-16T02:56:57.491Z,1.50
2022-09-16T02:59:25.418Z,1.40
2022-09-16T03:01:52.773Z,1.23
2022-09-16T03:04:20.885Z,1.25
2022-09-16T03:06:48.817Z,1.60
2022-09-16T03:09:18.237Z,1.42
2022-09-16T03:12:04.444Z,2.17
2022-09-16T03:14:38.437Z,1.70
2022-09-16T03:17:24.162Z,1.45
2022-09-16T03:19:51.481Z,1.30
2022-09-16T03:22:39.009Z,1.70
2022-09-16T03:25:15.339Z,1.70
2022-09-16T03:27:49.515Z,1.30
2022-09-16T03:30:17.054Z,1.00
2022-09-16T03:32:48.179Z,1.10
2022-09-16T03:37:43.442Z,1.30
2022-09-16T03:40:13.256Z,1.30
2022-09-16T03:42:41.129Z,1.27
2022-09-16T03:45:08.904Z,1.30
2022-09-16T03:47:36.142Z,1.25
2022-09-16T03:50:04.637Z,1.13
2022-09-16T03:52:31.907Z,1.00
2022-09-16T03:54:59.132Z,1.08
2022-09-16T03:57:28.276Z,1.48
2022-09-16T03:59:55.534Z,1.55
2022-09-16T04:02:22.801Z,1.20
2022-09-16T04:04:50.039Z,1.48
2022-09-16T04:07:17.283Z,1.50
2022-09-16T04:09:44.537Z,1.45
2022-09-16T04:12:11.771Z,1.50
2022-09-16T04:14:39.007Z,1.30
2022-09-16T04:17:06.335Z,1.63
2022-09-16T04:19:33.598Z,1.27
2022-09-16T04:22:01.178Z,1.33
2022-09-16T04:24:30.496Z,1.80
2022-09-16T04:26:57.711Z,1.48
2022-09-16T04:29:24.996Z,1.30
2022-09-16T04:31:52.230Z,1.25
2022-09-16T04:34:19.509Z,1.40
2022-09-16T04:36:46.918Z,1.42
2022-09-16T04:39:15.745Z,1.30
2022-09-16T04:41:43.058Z,1.55
2022-09-16T04:44:11.043Z,1.25
2022-09-16T04:46:38.365Z,1.20
2022-09-16T04:49:05.771Z,1.30
2022-09-16T04:51:33.046Z,1.45
2022-09-16T04:54:01.735Z,1.70
2022-09-16T04:56:31.469Z,1.42
2022-09-16T04:59:03.003Z,1.60
2022-09-16T05:01:31.677Z,1.60
2022-09-16T05:04:00.811Z,1.50
2022-09-16T05:06:29.684Z,1.70
2022-09-16T05:08:57.467Z,1.50
2022-09-16T05:11:26.417Z,1.75
2022-09-16T05:13:53.952Z,1.77
2022-09-16T05:16:22.427Z,2.00
2022-09-16T05:18:50.662Z,1.80
2022-09-16T05:21:19.341Z,1.45
2022-09-16T05:23:47.357Z,2.05
2022-09-16T05:26:14.767Z,1.60
2022-09-16T05:28:42.074Z,2.10
2022-09-16T05:31:14.203Z,1.65
2022-09-16T05:33:42.629Z,1.58
2022-09-16T05:36:11.194Z,1.77
2022-09-16T05:38:38.797Z,1.42
2022-09-16T05:41:06.333Z,1.65
2022-09-16T05:43:33.809Z,1.92
2022-09-16T05:46:01.484Z,1.63
2022-09-16T05:48:29.142Z,1.80
2022-09-16T05:50:57.571Z,1.90
2022-09-16T05:53:25.670Z,1.60
2022-09-16T05:55:56.631Z,1.40
2022-09-16T05:58:25.359Z,1.70
2022-09-16T06:00:52.627Z,1.92
2022-09-16T06:03:19.923Z,1.55
2022-09-16T06:05:47.150Z,1.52
2022-09-16T06:08:14.369Z,1.67
2022-09-16T06:10:42.329Z,1.50
2022-09-16T06:13:09.614Z,1.40
2022-09-16T06:15:36.904Z,1.80
2022-09-16T06:18:06.481Z,1.65
2022-09-16T06:20:33.947Z,1.70
2022-09-16T06:23:01.183Z,1.70
2022-09-16T06:25:28.433Z,1.42
2022-09-16T06:27:55.683Z,1.10
2022-09-16T06:30:23.109Z,1.02
2022-09-16T06:32:50.368Z,1.50
2022-09-16T06:35:17.666Z,1.13
2022-09-16T06:37:44.874Z,1.60
2022-09-16T06:40:12.168Z,1.08
2022-09-16T06:42:39.520Z,1.08
2022-09-16T06:45:07.068Z,1.10
2022-09-16T06:47:34.390Z,0.90
2022-09-16T06:50:01.700Z,1.23
2022-09-16T06:52:28.982Z,1.02
2022-09-16T06:54:56.205Z,1.00
2022-09-16T06:57:23.754Z,1.10
2022-09-16T06:59:51.397Z,1.13
2022-09-16T07:02:18.839Z,1.05
2022-09-16T07:04:46.273Z,1.20
2022-09-16T07:07:13.718Z,0.70
2022-09-16T07:09:41.241Z,1.00
2022-09-16T07:12:09.121Z,0.98
2022-09-16T07:14:36.483Z,0.63
2022-09-16T07:17:05.115Z,1.10
2022-09-16T07:19:32.432Z,0.95
2022-09-16T07:21:59.651Z,0.80
2022-09-16T07:24:26.907Z,0.55
2022-09-16T07:26:54.145Z,0.73
2022-09-16T07:29:22.118Z,0.98
2022-09-16T07:31:49.359Z,0.68
2022-09-16T07:34:16.711Z,0.80
2022-09-16T07:36:48.406Z,0.90
2022-09-16T07:39:16.939Z,0.68
2022-09-16T07:41:45.079Z,0.88
2022-09-16T07:44:15.330Z,0.90
2022-09-16T07:46:42.603Z,0.83
2022-09-16T07:49:11.725Z,0.82
2022-09-16T07:51:39.102Z,0.70
2022-09-16T07:54:10.195Z,0.77
2022-09-16T07:59:06.393Z,0.70
2022-09-16T08:01:34.233Z,0.73
2022-09-16T08:04:02.150Z,0.60
2022-09-16T08:06:30.352Z,1.15
2022-09-16T08:09:09.777Z,0.50
2022-09-16T08:11:42.952Z,0.70
2022-09-16T08:14:10.381Z,0.73
2022-09-16T08:16:38.046Z,0.80
2022-09-16T08:19:05.322Z,0.65
2022-09-16T08:21:32.962Z,0.70
2022-09-16T08:24:00.259Z,0.45
2022-09-16T08:26:27.583Z,0.60
2022-09-16T08:29:08.337Z,0.60
2022-09-16T08:31:37.250Z,0.70
2022-09-16T08:34:04.770Z,0.65
2022-09-16T08:36:33.626Z,0.30
2022-09-16T08:39:00.875Z,0.70
2022-09-16T08:41:28.145Z,0.57
2022-09-16T08:43:58.124Z,0.55
2022-09-16T08:46:44.312Z,0.80
2022-09-16T08:49:26.864Z,0.55
2022-09-16T08:51:55.147Z,1.20
2022-09-16T08:54:31.219Z,0.77
2022-09-16T08:57:00.958Z,0.55
2022-09-16T08:59:30.679Z,0.50
2022-09-16T09:02:05.299Z,0.73
2022-09-16T09:04:35.885Z,0.68
2022-09-16T09:07:09.542Z,0.40
2022-09-16T09:09:55.773Z,0.60
2022-09-16T09:12:40.646Z,0.70
2022-09-16T09:15:17.547Z,0.40
2022-09-16T09:18:11.751Z,0.60
2022-09-16T09:20:42.838Z,0.50
2022-09-16T09:23:28.900Z,0.77
2022-09-16T09:26:00.260Z,0.70
2022-09-16T09:28:27.519Z,0.60
2022-09-16T09:31:00.365Z,0.70
2022-09-16T09:34:00.232Z,0.60
2022-09-16T09:36:27.515Z,0.57
2022-09-16T09:39:18.195Z,0.68
2022-09-16T09:42:06.558Z,0.80
2022-09-16T09:44:42.094Z,0.90
2022-09-16T09:47:14.611Z,0.70
2022-09-16T09:49:46.772Z,0.80
2022-09-16T09:52:16.834Z,0.63
2022-09-16T09:54:47.285Z,0.77
2022-09-16T09:57:38.228Z,0.70
2022-09-16T10:00:17.094Z,0.75
2022-09-16T10:02:49.544Z,0.80
2022-09-16T10:05:28.408Z,0.75
2022-09-16T10:08:00.539Z,1.08
2022-09-16T10:10:29.814Z,0.60
2022-09-16T10:13:07.168Z,0.57
2022-09-16T10:15:34.609Z,0.68
2022-09-16T10:18:03.438Z,0.80
2022-09-16T10:20:32.623Z,0.70
2022-09-16T10:23:10.830Z,1.00
2022-09-16T10:25:38.374Z,1.10
2022-09-16T10:28:07.120Z,0.70
2022-09-16T10:30:48.706Z,0.70
2022-09-16T10:33:21.812Z,0.90
2022-09-16T10:36:00.797Z,0.82
2022-09-16T10:38:38.575Z,1.00
2022-09-16T10:41:23.362Z,1.23
2022-09-16T10:43:52.198Z,0.60
2022-09-16T10:46:19.954Z,0.60
2022-09-16T10:48:48.300Z,0.90
2022-09-16T10:51:25.695Z,0.93
2022-09-16T10:53:54.391Z,0.77
2022-09-16T10:56:23.401Z,1.13
2022-09-16T10:58:50.964Z,0.55
2022-09-16T11:01:29.950Z,0.80
2022-09-16T11:04:00.409Z,0.77
2022-09-16T11:06:31.055Z,0.65
2022-09-16T11:09:06.287Z,0.90
2022-09-16T11:11:33.562Z,0.70
2022-09-16T11:14:21.084Z,1.00
2022-09-16T11:16:51.091Z,1.10
2022-09-16T11:19:24.513Z,0.70
2022-09-16T11:21:56.840Z,1.13
2022-09-16T11:24:43.622Z,0.82
2022-09-16T11:27:16.667Z,0.95
2022-09-16T11:29:53.129Z,0.60
2022-09-16T11:32:33.359Z,0.77
2022-09-16T11:35:19.222Z,0.50
2022-09-16T11:37:55.612Z,0.70
2022-09-16T11:40:32.497Z,0.70
2022-09-16T11:43:16.672Z,0.98
2022-09-16T11:45:49.753Z,0.88
2022-09-16T11:48:35.471Z,0.82
2022-09-16T11:51:10.100Z,0.80
2022-09-16T11:53:45.140Z,0.90
2022-09-16T11:56:15.104Z,0.82
2022-09-16T11:58:42.362Z,0.70
2022-09-16T12:01:28.492Z,0.80
2022-09-16T12:03:55.755Z,0.70
2022-09-16T12:06:24.905Z,0.85
2022-09-16T12:08:58.156Z,0.85
2022-09-16T12:11:33.071Z,0.82
2022-09-16T12:14:11.780Z,1.00
2022-09-16T12:16:50.151Z,0.98
2022-09-16T12:19:22.688Z,0.60
2022-09-16T12:22:05.757Z,0.70
2022-09-16T12:24:36.112Z,0.90
2022-09-16T12:27:11.477Z,0.88
2022-09-16T12:29:47.266Z,0.75
2022-09-16T12:32:21.952Z,0.80
2022-09-16T12:34:55.924Z,0.70
2022-09-16T12:37:44.801Z,0.80
2022-09-16T12:40:20.612Z,0.70
2022-09-16T12:43:06.559Z,0.77
2022-09-16T12:45:52.331Z,0.50
2022-09-16T12:48:25.636Z,0.68
2022-09-16T12:50:56.019Z,0.82
2022-09-16T12:53:42.090Z,0.73
2022-09-16T12:56:10.479Z,0.60
2022-09-16T12:58:37.763Z,1.00
2022-09-16T13:01:08.459Z,0.90
2022-09-16T13:03:39.551Z,1.38
2022-09-16T13:06:17.677Z,0.90
2022-09-16T13:08:45.461Z,0.90
2022-09-16T13:12:07.224Z,0.90
2022-09-16T13:14:21.733Z,0.80
2022-09-16T13:16:57.217Z,0.80
2022-09-16T13:19:47.121Z,0.50
2022-09-16T13:22:18.884Z,0.60
2022-09-16T13:24:51.673Z,0.43
2022-09-16T13:27:25.114Z,0.80
2022-09-16T13:29:52.474Z,0.30
2022-09-16T13:32:46.132Z,0.40
2022-09-16T13:35:19.827Z,0.40
2022-09-16T13:37:48.082Z,0.50
2022-09-16T13:40:28.709Z,0.60
2022-09-16T13:43:14.227Z,0.60
2022-09-16T13:45:42.892Z,0.60
2022-09-16T13:48:15.568Z,0.32
2022-09-16T13:50:52.410Z,0.70
2022-09-16T13:53:21.930Z,0.77
2022-09-16T13:55:50.603Z,1.00
2022-09-16T13:58:30.997Z,1.00
2022-09-16T14:01:16.422Z,1.00
2022-09-16T14:03:43.654Z,0.85
2022-09-16T14:06:10.878Z,0.88
2022-09-16T14:08:47.198Z,1.10
2022-09-16T14:11:14.558Z,0.75
2022-09-16T14:13:44.205Z,1.08
2022-09-16T14:16:28.186Z,1.38
2022-09-16T14:19:04.942Z,1.30
2022-09-16T14:21:32.532Z,1.23
2022-09-16T14:24:19.168Z,1.30
2022-09-16T14:26:57.316Z,1.23
2022-09-16T14:29:27.243Z,1.08
2022-09-16T14:31:55.435Z,1.35
2022-09-16T14:34:33.997Z,0.95
2022-09-16T14:37:01.634Z,1.20
2022-09-16T14:39:30.116Z,1.40
2022-09-16T14:42:03.506Z,1.70
2022-09-16T14:44:34.498Z,1.55
2022-09-16T14:47:08.838Z,1.70
2022-09-16T14:49:40.395Z,1.90
2022-09-16T14:52:16.898Z,1.30
2022-09-16T14:54:44.981Z,2.05
2022-09-16T14:57:16.352Z,2.00
2022-09-16T14:59:44.187Z,1.55
2022-09-16T15:02:17.618Z,1.83
2022-09-16T15:04:46.881Z,1.63
2022-09-16T15:07:21.528Z,1.55
2022-09-16T15:09:55.335Z,1.38
2022-09-16T15:12:26.102Z,1.50
2022-09-16T15:14:53.534Z,1.45
2022-09-16T15:17:22.757Z,2.13
2022-09-16T15:19:52.631Z,2.90
2022-09-16T15:22:20.279Z,2.40
2022-09-16T15:24:48.406Z,2.17
2022-09-16T15:27:21.430Z,2.50
2022-09-16T15:29:50.536Z,2.47
2022-09-16T15:32:18.316Z,1.75
2022-09-16T15:34:46.388Z,1.58
2022-09-16T15:37:32.982Z,1.90
2022-09-16T15:40:12.214Z,1.48
2022-09-16T15:42:39.763Z,1.30
2022-09-16T15:45:14.569Z,1.17
2022-09-16T15:47:49.308Z,1.33
2022-09-16T15:50:18.927Z,1.15
2022-09-16T15:52:52.132Z,1.30
2022-09-16T15:55:28.607Z,1.38
2022-09-16T15:58:03.058Z,1.23
2022-09-16T16:00:37.267Z,1.30
2022-09-16T16:03:17.193Z,1.58
2022-09-16T16:05:51.410Z,1.27
2022-09-16T16:08:38.656Z,1.40
2022-09-16T16:11:32.307Z,1.45
2022-09-16T16:14:01.892Z,1.30
2022-09-16T16:16:29.471Z,1.58
2022-09-16T16:18:57.470Z,1.13
2022-09-16T16:21:24.740Z,1.77
2022-09-16T16:23:51.983Z,1.55
2022-09-16T16:26:20.487Z,1.63
2022-09-16T16:28:47.727Z,1.63
2022-09-16T16:31:18.563Z,1.40
2022-09-16T16:33:47.639Z,1.40
2022-09-16T16:36:15.933Z,1.45
2022-09-16T16:38:43.750Z,1.20
2022-09-16T16:41:12.404Z,1.40
2022-09-16T16:43:40.484Z,1.20
2022-09-16T16:46:07.861Z,1.27
2022-09-16T16:48:35.842Z,1.38
2022-09-16T16:51:04.890Z,1.17
2022-09-16T16:53:32.667Z,1.38
2022-09-16T16:56:04.312Z,1.90
2022-09-16T16:58:32.230Z,1.35
2022-09-16T17:01:16.372Z,1.20
2022-09-16T17:03:44.957Z,1.50
2022-09-16T17:06:12.198Z,1.45
2022-09-16T17:08:39.531Z,1.23
2022-09-16T17:11:12.685Z,1.30
2022-09-16T17:13:40.943Z,1.40
2022-09-16T17:16:08.722Z,1.50
2022-09-16T17:18:36.981Z,1.55
2022-09-16T17:21:05.474Z,1.17
2022-09-16T17:23:32.842Z,1.48
2022-09-16T17:26:00.238Z,1.40
2022-09-16T17:28:27.462Z,1.63
2022-09-16T17:30:54.718Z,1.65
2022-09-16T17:33:22.248Z,1.80
2022-09-16T17:35:59.813Z,1.83
2022-09-16T17:38:27.053Z,1.95
2022-09-16T17:41:01.206Z,1.60
2022-09-16T17:43:32.153Z,1.60
2022-09-16T17:46:00.479Z,1.80
2022-09-16T17:48:28.035Z,2.05
2022-09-16T17:50:55.676Z,1.88
2022-09-16T17:53:23.505Z,1.50
2022-09-16T17:55:50.975Z,1.70
2022-09-16T17:58:18.512Z,1.65
2022-09-16T18:00:45.751Z,1.85
2022-09-16T18:03:13.541Z,1.85
2022-09-16T18:05:40.853Z,1.83
2022-09-16T18:08:08.122Z,1.85
2022-09-16T18:10:35.390Z,1.95
2022-09-16T18:13:03.040Z,1.60
2022-09-16T18:15:30.578Z,1.90
2022-09-16T18:17:57.825Z,2.00
2022-09-16T18:20:25.391Z,1.77
2022-09-16T18:22:52.661Z,2.33
2022-09-16T18:25:19.969Z,1.80
2022-09-16T18:27:47.243Z,1.55
2022-09-16T18:30:15.308Z,1.75
2022-09-16T18:32:42.547Z,1.80
2022-09-16T18:35:11.935Z,1.85
2022-09-16T18:37:39.168Z,1.85
2022-09-16T18:40:06.800Z,1.50
2022-09-16T18:42:34.062Z,1.70
2022-09-16T18:45:01.567Z,1.70
2022-09-16T18:47:28.829Z,1.70
2022-09-16T18:49:56.046Z,2.03
2022-09-16T18:52:23.256Z,1.45
2022-09-16T18:54:50.505Z,1.60
2022-09-16T18:57:18.551Z,1.60
2022-09-16T18:59:46.447Z,1.58
2022-09-16T19:02:15.348Z,1.17
2022-09-16T19:04:43.504Z,1.00
2022-09-16T19:07:12.952Z,1.30
2022-09-16T19:09:40.751Z,1.15
2022-09-16T19:12:11.684Z,1.27
2022-09-16T19:14:39.445Z,1.42
2022-09-16T19:17:06.842Z,0.80
2022-09-16T19:19:34.414Z,0.98
2022-09-16T19:22:05.772Z,1.20
2022-09-16T19:24:35.257Z,1.00
2022-09-16T19:27:02.582Z,1.00
2022-09-16T19:29:29.878Z,1.00
2022-09-16T19:31:57.524Z,1.13
2022-09-16T19:34:24.950Z,0.98
2022-09-16T19:36:52.340Z,0.88
2022-09-16T19:39:21.439Z,0.98
2022-09-16T19:41:49.010Z,1.17
2022-09-16T19:44:17.615Z,0.90
2022-09-16T19:46:47.073Z,1.20
2022-09-16T19:49:15.977Z,0.80
2022-09-16T19:51:43.340Z,0.88
2022-09-16T19:54:10.743Z,0.77
2022-09-16T19:56:38.150Z,1.00
2022-09-16T19:59:06.304Z,0.93
2022-09-16T20:01:34.324Z,1.00
2022-09-16T20:04:02.436Z,0.88
2022-09-16T20:06:32.591Z,1.00
2022-09-16T20:09:00.671Z,1.00
2022-09-16T20:11:29.284Z,0.95
2022-09-16T20:13:57.716Z,0.93
2022-09-16T20:16:26.837Z,1.15
2022-09-16T20:18:54.113Z,1.00
2022-09-16T20:21:22.412Z,1.02
2022-09-16T20:23:49.765Z,0.98
2022-09-16T20:26:21.153Z,1.02
2022-09-16T20:28:52.451Z,1.17
2022-09-16T20:31:20.995Z,1.10
2022-09-16T20:33:48.743Z,1.35
2022-09-16T20:36:17.199Z,1.27
2022-09-16T20:38:45.347Z,1.30
2022-09-16T20:41:15.462Z,1.20
2022-09-16T20:43:42.845Z,1.30
2022-09-16T20:46:12.059Z,1.38
2022-09-16T20:48:39.701Z,1.20
2022-09-16T20:51:07.846Z,1.30
2022-09-16T20:53:38.832Z,1.30
2022-09-16T20:56:07.472Z,1.60
2022-09-16T20:58:35.564Z,1.20
2022-09-16T21:01:13.084Z,1.20
2022-09-16T21:03:40.618Z,1.40
2022-09-16T21:06:12.011Z,1.10
2022-09-16T21:08:39.920Z,1.35
2022-09-16T21:11:12.570Z,1.30
2022-09-16T21:13:41.429Z,1.17
2022-09-16T21:16:10.289Z,1.20
2022-09-16T21:18:37.569Z,1.40
2022-09-16T21:21:08.579Z,1.20
2022-09-16T21:23:36.589Z,1.33
2022-09-16T21:26:08.443Z,1.40
2022-09-16T21:28:36.010Z,1.23
2022-09-16T21:31:04.221Z,1.20
2022-09-16T21:33:32.120Z,1.60
2022-09-16T21:35:59.519Z,1.52
2022-09-16T21:38:28.242Z,1.60
2022-09-16T21:40:57.051Z,1.35
2022-09-16T21:43:27.469Z,1.70
2022-09-16T21:45:55.325Z,1.52
2022-09-16T21:48:22.683Z,2.00
2022-09-16T21:50:50.426Z,1.48
2022-09-16T21:53:17.706Z,1.65
2022-09-16T21:55:45.031Z,1.73
2022-09-16T21:58:12.260Z,1.67
2022-09-16T22:00:39.572Z,1.45
2022-09-16T22:03:07.217Z,1.42
2022-09-16T22:05:34.748Z,1.70
2022-09-16T22:08:02.595Z,1.58
2022-09-16T22:10:30.816Z,1.58
2022-09-16T22:12:58.163Z,1.55
2022-09-16T22:15:25.391Z,1.88
2022-09-16T22:17:54.249Z,1.75
2022-09-16T22:20:25.555Z,1.65
2022-09-16T22:22:52.866Z,1.58
2022-09-16T22:25:20.124Z,1.92
2022-09-16T22:27:47.377Z,1.58
2022-09-16T22:30:14.599Z,1.63
2022-09-16T22:32:42.020Z,1.52
2022-09-16T22:35:09.635Z,1.77
2022-09-16T22:37:36.981Z,1.60
2022-09-16T22:40:04.774Z,1.38
2022-09-16T22:42:32.158Z,1.90
2022-09-16T22:44:59.393Z,1.52
2022-09-16T22:47:26.668Z,1.50
2022-09-16T22:49:54.141Z,1.90
2022-09-16T22:52:21.378Z,1.60
2022-09-16T22:54:48.730Z,1.80
2022-09-16T22:57:15.978Z,1.77
2022-09-16T22:59:43.354Z,1.80
2022-09-16T23:02:10.767Z,2.10
2022-09-16T23:04:38.117Z,1.80
2022-09-16T23:07:43.093Z,2.15
2022-09-16T23:10:10.857Z,2.20
2022-09-16T23:12:38.125Z,2.10
2022-09-16T23:15:06.944Z,2.22
2022-09-16T23:17:34.116Z,1.92
2022-09-16T23:20:01.330Z,1.83
2022-09-16T23:22:28.593Z,1.70
2022-09-16T23:24:55.882Z,1.73
2022-09-16T23:27:23.133Z,1.70
2022-09-16T23:29:50.376Z,1.70
2022-09-16T23:32:17.649Z,1.80
2022-09-16T23:34:44.877Z,1.80
2022-09-16T23:37:12.106Z,1.77
2022-09-16T23:39:39.337Z,1.83
2022-09-16T23:42:06.685Z,1.90
2022-09-16T23:44:34.067Z,1.80
2022-09-16T23:47:01.398Z,1.90
2022-09-16T23:49:28.724Z,2.08
2022-09-16T23:51:55.974Z,1.95
2022-09-16T23:54:23.330Z,1.92
2022-09-16T23:56:50.545Z,1.80
2022-09-16T23:59:17.788Z,1.80
